»·PEaware :: GTH103 KONT-KPRC

GTH103 :: KONT-KPRC

FLIGHT INFORMATION

Flight Status: Arrived
Operator: Unknown
More flights by this operator :: More flights under this callsign
Pilot: Peter M. (9586)
Aircraft: FAIRCHILD F-27 FH-227
(F27)
More flights by this aircraft type
Origin: KONT Ontario Intl
United States
Destination: KPRC Love
United States
More flights between these airports :: More routes between these airports
Route: KONT RAJEE2 AVRRY TNP EED DRK KPRC
File this flight plan on PilotEdge
Remarks:
Altitude:
(Current/Filed)
210ft
Speed:
(Current/Filed)
200kts
Departed: 24-Dec-17 09:43 PM
Arrived: 24-Dec-17 10:56 PM
Distance/Time
Traveled:
259nm/1:13
Distance/Time
To Go:
Arrived

Flight Plot

Page will automatically refresh every two minutes.

Flight plan parsing failed; only flown route is shown


Map Options




Map Legend


Flown Route
Filed Route
Departure Airport
Arrival Airport
Navaid (VOR, NDB)
Fix

Horizontal Profiles

Position Reports

Time Latitude Longitude Heading Altitude Ground
Speed
24-Dec-17 21:10 34.060075 -117.618008 270 950ft 0kts
24-Dec-17 21:11 34.060075 -117.618008 270 950ft 0kts
24-Dec-17 21:12 34.060075 -117.618008 270 950ft 0kts
24-Dec-17 21:13 34.060075 -117.618008 270 950ft 0kts
24-Dec-17 21:14 34.060075 -117.618008 270 950ft 0kts
24-Dec-17 21:15 34.060075 -117.618008 270 950ft 0kts
24-Dec-17 21:16 34.060075 -117.618008 270 950ft 0kts
24-Dec-17 21:17 34.060075 -117.618008 270 950ft 0kts
24-Dec-17 21:18 34.060075 -117.618008 270 950ft 0kts
24-Dec-17 21:19 34.060075 -117.618008 270 950ft 0kts
24-Dec-17 21:20 34.060075 -117.618008 270 950ft 0kts
24-Dec-17 21:21 34.060075 -117.618008 270 950ft 0kts
24-Dec-17 21:22 34.060075 -117.618008 270 950ft 0kts
24-Dec-17 21:23 34.060075 -117.618008 270 950ft 0kts
24-Dec-17 21:24 34.060075 -117.618008 270 950ft 0kts
24-Dec-17 21:25 34.060075 -117.618008 270 950ft 0kts
24-Dec-17 21:26 34.060075 -117.618008 270 950ft 0kts
24-Dec-17 21:27 34.060075 -117.618008 270 950ft 0kts
24-Dec-17 21:28 34.060075 -117.618008 270 950ft 0kts
24-Dec-17 21:29 34.060075 -117.618008 270 950ft 0kts
24-Dec-17 21:30 34.060075 -117.618008 270 950ft 0kts
24-Dec-17 21:31 34.060075 -117.618008 270 950ft 0kts
24-Dec-17 21:32 34.060075 -117.618008 270 950ft 0kts
24-Dec-17 21:33 34.060075 -117.618008 270 950ft 0kts
24-Dec-17 21:34 34.060075 -117.618008 270 950ft 0kts
24-Dec-17 21:35 34.060075 -117.618008 270 950ft 0kts
24-Dec-17 21:36 34.060075 -117.618008 270 950ft 0kts
24-Dec-17 21:37 34.060075 -117.618008 270 950ft 0kts
24-Dec-17 21:38 34.060075 -117.618008 270 950ft 0kts
24-Dec-17 21:39 34.060075 -117.618008 270 950ft 0kts
24-Dec-17 21:40 34.060075 -117.618008 270 950ft 0kts
24-Dec-17 21:41 34.060075 -117.618008 270 950ft 0kts
24-Dec-17 21:42 34.060075 -117.618008 270 950ft 0kts
24-Dec-17 21:43 34.060075 -117.618008 270 950ft 0kts
24-Dec-17 21:44 34.060075 -117.618008 270 950ft 0kts
24-Dec-17 21:45 34.060075 -117.618009 269 950ft 0kts
24-Dec-17 21:46 34.060075 -117.618034 268 950ft 0kts
24-Dec-17 21:47 34.060075 -117.618037 268 950ft 0kts
24-Dec-17 21:48 34.060200 -117.617074 99 950ft 16kts
24-Dec-17 21:49 34.057909 -117.611681 89 950ft 47kts
24-Dec-17 21:50 34.057931 -117.601172 89 950ft 49kts
24-Dec-17 21:51 34.057899 -117.587721 94 950ft 8kts
24-Dec-17 21:52 34.057715 -117.582758 172 950ft 1kts
24-Dec-17 21:53 34.057561 -117.582735 168 950ft 0kts
24-Dec-17 21:54 34.057558 -117.582735 168 950ft 0kts
24-Dec-17 21:55 34.056877 -117.582999 263 950ft 0kts
24-Dec-17 21:56 34.056877 -117.583002 263 950ft 0kts
24-Dec-17 21:57 34.056149 -117.623405 266 1529ft 195kts
24-Dec-17 21:58 34.049376 -117.696434 255 3145ft 218kts
24-Dec-17 21:59 34.000652 -117.726105 161 5265ft 233kts
24-Dec-17 22:00 33.965930 -117.659160 114 6688ft 251kts
24-Dec-17 22:01 33.936707 -117.580818 113 8014ft 256kts
24-Dec-17 22:02 33.895515 -117.518745 144 10257ft 248kts
24-Dec-17 22:03 33.837186 -117.456674 137 10076ft 290kts
24-Dec-17 22:04 33.778851 -117.393185 139 10997ft 272kts
24-Dec-17 22:05 33.721381 -117.333389 124 12329ft 263kts
24-Dec-17 22:06 33.694600 -117.253135 106 14505ft 269kts
24-Dec-17 22:07 33.671635 -117.165066 107 16126ft 276kts
24-Dec-17 22:08 33.669363 -117.071512 82 17360ft 290kts
24-Dec-17 22:09 33.665312 -116.976473 94 19659ft 253kts
24-Dec-17 22:10 33.656328 -116.888082 100 20973ft 290kts
24-Dec-17 22:11 33.630512 -116.787200 110 20808ft 326kts
24-Dec-17 22:12 33.601957 -116.685265 110 21203ft 329kts
24-Dec-17 22:13 33.575665 -116.578589 95 21205ft 336kts
24-Dec-17 22:14 33.581045 -116.466659 83 21316ft 341kts
24-Dec-17 22:15 33.591185 -116.353158 83 21182ft 343kts
24-Dec-17 22:16 33.594331 -116.238715 88 21083ft 344kts
24-Dec-17 22:17 33.595831 -116.123879 87 21094ft 340kts
24-Dec-17 22:18 33.611669 -116.014414 69 21315ft 337kts
24-Dec-17 22:19 33.641677 -115.906660 68 21171ft 343kts
24-Dec-17 22:20 33.671893 -115.798382 68 21054ft 343kts
24-Dec-17 22:21 33.704933 -115.691579 58 20967ft 338kts
24-Dec-17 22:22 33.779808 -115.636084 13 20964ft 315kts
24-Dec-17 22:23 33.861191 -115.611765 344 21629ft 277kts
24-Dec-17 22:24 33.919429 -115.636298 326 22226ft 268kts
24-Dec-17 22:25 33.989228 -115.677482 335 22052ft 291kts
24-Dec-17 22:26 34.080270 -115.706242 341 21913ft 299kts
24-Dec-17 22:27 34.148592 -115.721710 342 21839ft 300kts
24-Dec-17 22:28 34.228862 -115.648371 89 21680ft 345kts
24-Dec-17 22:29 34.275542 -115.447563 48 21587ft 336kts
24-Dec-17 22:30 34.375146 -115.254388 54 21415ft 339kts
24-Dec-17 22:31 34.425990 -115.153871 53 21327ft 341kts
24-Dec-17 22:32 34.481168 -115.044358 54 21207ft 342kts
24-Dec-17 22:33 34.579966 -114.847529 54 21011ft 341kts
24-Dec-17 22:34 34.671044 -114.665165 54 21396ft 336kts
24-Dec-17 22:35 34.719922 -114.566876 54 21292ft 341kts
24-Dec-17 22:36 34.763606 -114.464308 75 21198ft 347kts
24-Dec-17 22:37 34.762653 -114.346806 90 21178ft 348kts
24-Dec-17 22:38 34.759932 -114.228809 91 21098ft 349kts
24-Dec-17 22:39 34.757215 -114.112156 91 21222ft 348kts
24-Dec-17 22:40 34.753783 -113.993843 91 21121ft 350kts
24-Dec-17 22:41 34.750422 -113.875674 91 21196ft 345kts
24-Dec-17 22:42 34.747057 -113.759519 91 21297ft 347kts
24-Dec-17 22:43 34.744516 -113.641701 88 21262ft 348kts
24-Dec-17 22:44 34.740462 -113.524014 92 21200ft 349kts
24-Dec-17 22:45 34.736206 -113.406142 91 20940ft 343kts
24-Dec-17 22:46 34.732350 -113.291862 91 20245ft 337kts
24-Dec-17 22:47 34.728562 -113.178609 91 19555ft 334kts
24-Dec-17 22:48 34.724602 -113.065635 91 18764ft 334kts
24-Dec-17 22:49 34.720568 -112.953054 91 18126ft 333kts
24-Dec-17 22:50 34.716482 -112.841208 91 17489ft 334kts
24-Dec-17 22:51 34.712200 -112.727720 92 16614ft 339kts
24-Dec-17 22:52 34.707892 -112.615503 92 15026ft 310kts
24-Dec-17 22:53 34.703963 -112.516562 93 13048ft 285kts
24-Dec-17 22:54 34.736926 -112.423698 48 8715ft 292kts
24-Dec-17 22:55 34.790942 -112.356372 48 6258ft 252kts
24-Dec-17 22:56 34.781651 -112.308559 200 6508ft 129kts
24-Dec-17 22:57 34.750100 -112.320822 203 5910ft 115kts
24-Dec-17 22:58 34.720973 -112.341360 224 6005ft 127kts
24-Dec-17 22:59 34.695177 -112.378052 228 5969ft 153kts
24-Dec-17 23:00 34.666766 -112.406388 221 5214ft 108kts
24-Dec-17 23:01 34.648500 -112.425711 222 5051ft 50kts
24-Dec-17 23:02 34.646597 -112.426359 43 5051ft 15kts

Navigation Log

Ident Type
Flight plan parsing failed, navigation log unavailable